Terminal Aerodrome Forecast
Issued by NWS King Salmon, AK

Home | Current Version | Previous Version | Text Only | Print | Product List | Glossary On
Versions: 1 2 3 4 5 6 7 8 9 10 11 12 13 14 15 16 17 18 19 20 21 22 23 24 25 26 27 28 29 30
000
FTAK31 PANC 280542
TAFAKN
TAF
PAKN 280542Z 2806/0106 04005KT P6SM VCSH FEW030 BKN050
     FM281200 VRB06KT 4SM -RA BR OVC020
     FM282000 30008G12KT P6SM SCT025 OVC040
     FM010300 01010G18KT P6SM SCT080=

USA.gov is the U.S. government's official web portal to all federal, state and local government web resources and services.